KM6AHX-12 Weather Reports


Display with metric or nautical units.
time (UTC)temp
F
wind
direction
speed
MPH
gust
MPH
rain 1hr
in
rain 24hr
in
rain mn
in
humidity
%
barometer
mb
20210226205928 74 292 4.0 11.0 0.00 0.00 0.00
20210226203157 74 313 2.0 10.0 0.00 0.00 0.00
20210226202512 74 323 1.0 6.0 0.00 0.00 0.00
20210226202054 74 177 0.0 7.0 0.00 0.00 0.00
20210226195631 72 358 4.0 9.0 0.00 0.00 0.00
20210226194216 72 244 2.0 9.0 0.00 0.00 0.00
20210226193424 72 257 9.0 9.0 0.00 0.00 0.00
20210226192157 72 281 5.0 9.0 0.00 0.00 0.00
20210226191755 71 271 5.0 8.0 0.00 0.00 0.00
20210226191552 71 299 8.0 8.0 0.00 0.00 0.00
20210226190951 70 215 2.0 6.0 0.00 0.00 0.00
20210226190744 70 157 1.0 7.0 0.00 0.00 0.00
20210226190550 70 168 2.0 7.0 0.00 0.00 0.00
20210226185404 70 115 6.0 7.0 0.00 0.00 0.00
20210226185331 70 115 6.0 7.0 0.00 0.00 0.00
20210226181658 67 88 0.0 8.0 0.00 0.00 0.00
20210226180059 67 355 0.0 5.0 0.00 0.00 0.00
20210226175841 67 355 0.0 6.0 0.00 0.00 0.00
20210226175236 67 26 1.0 8.0 0.00 0.00 0.00
20210226174834 66 95 5.0 9.0 0.00 0.00 0.00
20210226174226 66 104 8.0 7.0 0.00 0.00 0.00
20210226173822 66 59 6.0 8.0 0.00 0.00 0.00
20210226173418 66 94 5.0 11.0 0.00 0.00 0.00
20210226172018 66 247 0.0 5.0 0.00 0.00 0.00
20210226170754 64 157 3.0 8.0 0.00 0.00 0.00
20210226165746 64 120 3.0 7.0 0.00 0.00 0.00
20210226165548 64 125 3.0 7.0 0.00 0.00 0.00
20210226165342 64 143 0.0 8.0 0.00 0.00 0.00
20210226165256 64 111 4.0 8.0 0.00 0.00 0.00
20210226165251 64 111 4.0 8.0 0.00 0.00 0.00
20210226164946 64 104 3.0 8.0 0.00 0.00 0.00
20210226163928 64 75 4.0 6.0 0.00 0.00 0.00
20210226163736 63 67 0.0 6.0 0.00 0.00 0.00
20210226163529 63 244 1.0 6.0 0.00 0.00 0.00
20210226163324 63 95 2.0 8.0 0.00 0.00 0.00
20210226161909 61 49 1.0 6.0 0.00 0.00 0.00
20210226161305 59 84 2.0 4.0 0.00 0.00 0.00 31
20210226161104 59 118 3.0 4.0 0.00 0.00 0.00 33
20210226160909 58 111 3.0 4.0 0.00 0.00 0.00
20210226160255 55 61 0.0 0.0 0.00 0.00 0.00 39
20210226155851 54 61 0.0 0.0 0.00 0.00 0.00 41
20210226155650 54 61 0.0 0.0 0.00 0.00 0.00 43
20210226155449 53 61 0.0 0.0 0.00 0.00 0.00 43
20210226155322 53 61 0.0 0.0 0.00 0.00 0.00 42
20210226155210 53 61 0.0 0.0 0.00 0.00 0.00 43
20210226154243 52 61 0.0 0.0 0.00 0.00 0.00 40
20210226153632 52 61 0.0 3.0 0.00 0.00 0.00 39
20210226153520 52 61 0.0 6.0 0.00 0.00 0.00 38
20210226153429 52 61 0.0 6.0 0.00 0.00 0.00 38
20210226153301 52 61 0.0 6.0 0.00 0.00 0.00 38
20210226153228 52 61 0.0 6.0 0.00 0.00 0.00 38
20210226153031 52 98 2.0 6.0 0.00 0.00 0.00 38
20210226152839 52 120 1.0 6.0 0.00 0.00 0.00 37
20210226152737 51 1 4.0 6.0 0.00 0.00 0.00 35
20210226152426 50 71 2.0 5.0 0.00 0.00 0.00 39
20210226152217 50 35 0.0 5.0 0.00 0.00 0.00 38
20210226151815 48 2 2.0 3.0 0.00 0.00 0.00 41
20210226151611 48 67 2.0 3.0 0.00 0.00 0.00 42
20210226151409 48 47 1.0 6.0 0.00 0.00 0.00 41
20210226151022 47 29 2.0 6.0 0.00 0.00 0.00 41
20210226150803 46 82 2.0 0.0 0.00 0.00 0.00 43
20210226150601 45 16 2.0 0.0 0.00 0.00 0.00 42
20210226150359 45 67 0.0 0.0 0.00 0.00 0.00 46
20210226145956 45 67 0.0 0.0 0.00 0.00 0.00 45
20210226145558 45 67 0.0 0.0 0.00 0.00 0.00 46
20210226145245 45 67 0.0 0.0 0.00 0.00 0.00 45
20210226145123 45 67 0.0 0.0 0.00 0.00 0.00 45
20210226144755 45 67 0.0 0.0 0.00 0.00 0.00 44
20210226144616 45 67 0.0 0.0 0.00 0.00 0.00 44
20210226144546 45 67 0.0 0.0 0.00 0.00 0.00 44
20210226144211 46 67 0.0 0.0 0.00 0.00 0.00 44
20210226144138 46 67 0.0 0.0 0.00 0.00 0.00 44
20210226143734 46 67 0.0 0.0 0.00 0.00 0.00 44
20210226143420 44 67 0.0 0.0 0.00 0.00 0.00 44
20210226143330 44 67 0.0 0.0 0.00 0.00 0.00 44
20210226142913 45 67 0.0 0.0 0.00 0.00 0.00 45
20210226142320 45 67 0.0 0.0 0.00 0.00 0.00 44
20210226141917 45 67 0.0 1.0 0.00 0.00 0.00 44
20210226141313 45 67 0.0 3.0 0.00 0.00 0.00 45
20210226140956 45 77 1.0 3.0 0.00 0.00 0.00 46
20210226140912 45 77 1.0 3.0 0.00 0.00 0.00 46
20210226140540 45 99 1.0 3.0 0.00 0.00 0.00 46
20210226140517 45 99 1.0 3.0 0.00 0.00 0.00 46
20210226140342 44 88 2.0 2.0 0.00 0.00 0.00 46
20210226140302 44 88 2.0 2.0 0.00 0.00 0.00 46
20210226135659 45 80 0.0 2.0 0.00 0.00 0.00 45
20210226135324 45 80 0.0 3.0 0.00 0.00 0.00 44
20210226135232 45 88 0.0 3.0 0.00 0.00 0.00 45
20210226134740 45 92 2.0 3.0 0.00 0.00 0.00 44
20210226134645 45 92 2.0 3.0 0.00 0.00 0.00 44
20210226134243 45 85 3.0 2.0 0.00 0.00 0.00 44
20210226134041 45 84 2.0 2.0 0.00 0.00 0.00 44
20210226133918 45 60 1.0 3.0 0.00 0.00 0.00 45
20210226133840 45 60 1.0 3.0 0.00 0.00 0.00 45
20210226133637 45 87 0.0 3.0 0.00 0.00 0.00 44
20210226133435 45 112 1.0 3.0 0.00 0.00 0.00 44
20210226133311 44 80 2.0 3.0 0.00 0.00 0.00 45
20210226133232 44 80 2.0 3.0 0.00 0.00 0.00 45
20210226133031 45 71 3.0 3.0 0.00 0.00 0.00 45
20210226132838 45 97 2.0 2.0 0.00 0.00 0.00 45
20210226132723 45 88 2.0 2.0 0.00 0.00 0.00 44
20210226132707 45 88 2.0 2.0 0.00 0.00 0.00 44
20210226132058 45 102 1.0 1.0 0.00 0.00 0.00 42
20210226132025 45 102 1.0 1.0 0.00 0.00 0.00 42
20210226131651 45 60 0.0 2.0 0.00 0.00 0.00 43
20210226131622 45 60 0.0 2.0 0.00 0.00 0.00 43
20210226131414 45 80 2.0 2.0 0.00 0.00 0.00 42
20210226131213 45 80 0.0 2.0 0.00 0.00 0.00 43
20210226130810 46 63 0.0 3.0 0.00 0.00 0.00 44
20210226130619 46 85 0.0 3.0 0.00 0.00 0.00 43
20210226130408 46 97 1.0 2.0 0.00 0.00 0.00 43
20210226130206 46 87 2.0 2.0 0.00 0.00 0.00 42
20210226130043 45 78 2.0 2.0 0.00 0.00 0.00 42
20210226130029 45 78 2.0 2.0 0.00 0.00 0.00 42
20210226125451 45 125 2.0 0.0 0.00 0.00 0.00 43
20210226125320 45 75 0.0 0.0 0.00 0.00 0.00 41
20210226124840 45 75 0.0 0.0 0.00 0.00 0.00 42
20210226124422 45 75 0.0 2.0 0.00 0.00 0.00 44
20210226124347 45 75 0.0 2.0 0.00 0.00 0.00 44
20210226124239 45 75 0.0 2.0 0.00 0.00 0.00 44
20210226124157 45 75 0.0 2.0 0.00 0.00 0.00 44
20210226124033 45 75 0.0 2.0 0.00 0.00 0.00 44
20210226123949 45 75 0.0 2.0 0.00 0.00 0.00 44
20210226123838 45 75 0.0 4.0 0.00 0.00 0.00 44
20210226123745 45 75 0.0 4.0 0.00 0.00 0.00 44
20210226123621 45 101 2.0 4.0 0.00 0.00 0.00 44
20210226123543 45 101 2.0 4.0 0.00 0.00 0.00 44
20210226123425 45 94 2.0 0.0 0.00 0.00 0.00 44
20210226123340 45 94 2.0 0.0 0.00 0.00 0.00 44
20210226123209 46 91 3.0 0.0 0.00 0.00 0.00 44
20210226123136 46 91 3.0 0.0 0.00 0.00 0.00 44
20210226122934 46 105 0.0 0.0 0.00 0.00 0.00 43
20210226122842 46 105 0.0 0.0 0.00 0.00 0.00 40
20210226122426 46 105 0.0 2.0 0.00 0.00 0.00 42
20210226122336 46 105 0.0 2.0 0.00 0.00 0.00 42
20210226122055 46 105 0.0 2.0 0.00 0.00 0.00 42
20210226121931 46 105 0.0 2.0 0.00 0.00 0.00 42
20210226121528 46 84 1.0 2.0 0.00 0.00 0.00 42
20210226121422 46 68 1.0 2.0 0.00 0.00 0.00 42
20210226121322 46 68 1.0 2.0 0.00 0.00 0.00 42
20210226120309 46 67 1.0 3.0 0.00 0.00 0.00 42
20210226120108 46 64 1.0 3.0 0.00 0.00 0.00 42
20210226120022 46 71 0.0 4.0 0.00 0.00 0.00 42
20210226115905 46 71 0.0 4.0 0.00 0.00 0.00 42
20210226115744 47 81 1.0 4.0 0.00 0.00 0.00 42
20210226115704 47 81 1.0 4.0 0.00 0.00 0.00 42
20210226115548 46 81 2.0 4.0 0.00 0.00 0.00 43
20210226115513 46 81 2.0 4.0 0.00 0.00 0.00 43
20210226115348 47 98 2.0 2.0 0.00 0.00 0.00 41
20210226115056 46 80 1.0 3.0 0.00 0.00 0.00 40
20210226114051 46 87 2.0 3.0 0.00 0.00 0.00 43
20210226113849 46 87 1.0 4.0 0.00 0.00 0.00 42
20210226113645 45 94 0.0 4.0 0.00 0.00 0.00 41
20210226113444 45 78 2.0 4.0 0.00 0.00 0.00 43
20210226113243 45 87 3.0 0.0 0.00 0.00 0.00 44
20210226113115 46 95 2.0 0.0 0.00 0.00 0.00 43
20210226113039 46 95 2.0 0.0 0.00 0.00 0.00 43
20210226112958 46 45 0.0 4.0 0.00 0.00 0.00 42
20210226112934 46 45 0.0 4.0 0.00 0.00 0.00 42
20210226112918 45 45 0.0 4.0 0.00 0.00 0.00 42
20210226112909 45 45 0.0 4.0 0.00 0.00 0.00 42
20210226112537 45 45 0.0 4.0 0.00 0.00 0.00 43
20210226112033 45 91 2.0 3.0 0.00 0.00 0.00 43
20210226111928 45 80 0.0 2.0 0.00 0.00 0.00 41
20210226111827 45 80 0.0 2.0 0.00 0.00 0.00 41
20210226111423 46 80 0.0 2.0 0.00 0.00 0.00 43
20210226111240 46 80 0.0 2.0 0.00 0.00 0.00 42
20210226111040 46 91 1.0 2.0 0.00 0.00 0.00 42
20210226110711 46 94 1.0 3.0 0.00 0.00 0.00 42
20210226110615 46 94 1.0 3.0 0.00 0.00 0.00 42
20210226105851 47 28 0.0 2.0 0.00 0.00 0.00 40
20210226105814 47 28 0.0 2.0 0.00 0.00 0.00 40
20210226105404 47 99 2.0 4.0 0.00 0.00 0.00 40
20210226105204 47 50 0.0 4.0 0.00 0.00 0.00 39
20210226105047 47 57 1.0 4.0 0.00 0.00 0.00 38
20210226105023 47 57 1.0 4.0 0.00 0.00 0.00 38
20210226103547 50 139 0.0 3.0 0.00 0.00 0.00 37
20210226103146 52 101 2.0 3.0 0.00 0.00 0.00 36
20210226103107 53 95 1.0 3.0 0.00 0.00 0.00 33
20210226103053 53 95 1.0 3.0 0.00 0.00 0.00 33
20210226103026 53 157 1.0 4.0 0.00 0.00 0.00 32
20210226103021 53 157 1.0 4.0 0.00 0.00 0.00 32
20210226102836 53 22 0.0 4.0 0.00 0.00 0.00 30
20210226102448 53 74 3.0 8.0 0.00 0.00 0.00 30
20210226102140 52 40 3.0 8.0 0.00 0.00 0.00 31
20210226102045 52 354 1.0 8.0 0.00 0.00 0.00 32
20210226101933 52 354 1.0 8.0 0.00 0.00 0.00 32
20210226101330 53 247 0.0 1.0 0.00 0.00 0.00 34
20210226100924 54 81 1.0 4.0 0.00 0.00 0.00 33
20210226100525 55 111 0.0 4.0 0.00 0.00 0.00 31
20210226100155 53 355 0.0 9.0 0.00 0.00 0.00 30
20210226100138 53 355 0.0 9.0 0.00 0.00 0.00 30
20210226095958 53 52 1.0 6.0 0.00 0.00 0.00 29
20210226095912 53 52 1.0 6.0 0.00 0.00 0.00 29
20210226095745 52 323 3.0 6.0 0.00 0.00 0.00 31
20210226095558 51 19 5.0 6.0 0.00 0.00 0.00 36
20210226095520 51 19 5.0 6.0 0.00 0.00 0.00 36
20210226095340 51 77 2.0 5.0 0.00 0.00 0.00 36
20210226095308 51 77 2.0 5.0 0.00 0.00 0.00 36
20210226095136 51 92 0.0 5.0 0.00 0.00 0.00 35
20210226095109 51 92 0.0 5.0 0.00 0.00 0.00 35
20210226094547 50 137 3.0 6.0 0.00 0.00 0.00 34
20210226094459 50 137 3.0 6.0 0.00 0.00 0.00 34
20210226093653 49 63 0.0 4.0 0.00 0.00 0.00 36
20210226093046 47 32 3.0 2.0 0.00 0.00 0.00 38
20210226093034 47 32 3.0 2.0 0.00 0.00 0.00 38
20210226092046 48 95 2.0 2.0 0.00 0.00 0.00 40
20210226091430 48 324 0.0 5.0 0.00 0.00 0.00
20210226091026 48 60 0.0 5.0 0.00 0.00 0.00
20210226090827 48 88 2.0 5.0 0.00 0.00 0.00
20210226090424 49 75 3.0 0.0 0.00 0.00 0.00
20210226090305 50 105 4.0 0.0 0.00 0.00 0.00
20210226090221 50 105 4.0 0.0 0.00 0.00 0.00
20210226090059 50 146 0.0 0.0 0.00 0.00 0.00
20210226090027 50 146 0.0 0.0 0.00 0.00 0.00
20210226085929 50 146 0.0 2.0 0.00 0.00 0.00
20210226085815 50 146 0.0 2.0 0.00 0.00 0.00
20210226085718 50 146 0.0 2.0 0.00 0.00 0.00
20210226085613 50 146 0.0 2.0 0.00 0.00 0.00
20210226085338 50 194 1.0 3.0 0.00 0.00 0.00
20210226084651 49 77 2.0 0.0 0.00 0.00 0.00
20210226084603 49 77 2.0 0.0 0.00 0.00 0.00
20210226084400 49 67 0.0 0.0 0.00 0.00 0.00
20210226084200 49 67 0.0 0.0 0.00 0.00 0.00
20210226083439 49 67 0.0 0.0 0.00 0.00 0.00
20210226083351 49 67 0.0 0.0 0.00 0.00 0.00
20210226082947 49 67 0.0 0.0 0.00 0.00 0.00
20210226082640 49 67 0.0 0.0 0.00 0.00 0.00
20210226082411 49 67 0.0 4.0 0.00 0.00 0.00
20210226082223 49 67 0.0 4.0 0.00 0.00 0.00
20210226082143 49 67 0.0 4.0 0.00 0.00 0.00
20210226081938 49 67 0.0 4.0 0.00 0.00 0.00
20210226081534 49 84 3.0 5.0 0.00 0.00 0.00
20210226081439 48 98 4.0 2.0 0.00 0.00 0.00
20210226081333 48 98 4.0 2.0 0.00 0.00 0.00
20210226081131 48 80 2.0 2.0 0.00 0.00 0.00
20210226080122 48 85 0.0 4.0 0.00 0.00 0.00
20210226075920 48 75 3.0 0.0 0.00 0.00 0.00
20210226075536 49 120 0.0 2.0 0.00 0.00 0.00
20210226075521 49 120 0.0 0.0 0.00 0.00 0.00
20210226075346 48 120 0.0 0.0 0.00 0.00 0.00
20210226075332 49 120 0.0 0.0 0.00 0.00 0.00
20210226075047 49 120 0.0 2.0 0.00 0.00 0.00
20210226074728 49 120 0.0 2.0 0.00 0.00 0.00
20210226074307 49 120 0.0 1.0 0.00 0.00 0.00
20210226074102 49 120 0.0 1.0 0.00 0.00 0.00
20210226073951 48 125 1.0 1.0 0.00 0.00 0.00
20210226073905 48 125 1.0 1.0 0.00 0.00 0.00
20210226073456 48 315 0.0 1.0 0.00 0.00 0.00
20210226073131 48 66 1.0 3.0 0.00 0.00 0.00
20210226073054 48 66 1.0 3.0 0.00 0.00 0.00
20210226072843 48 97 3.0 0.0 0.00 0.00 0.00
20210226072619 48 75 0.0 0.0 0.00 0.00 0.00
20210226072519 48 75 0.0 0.0 0.00 0.00 0.00
20210226072323 48 75 0.0 3.0 0.00 0.00 0.00
20210226072245 48 75 0.0 3.0 0.00 0.00 0.00
20210226072043 48 75 0.0 3.0 0.00 0.00 0.00
20210226071438 48 122 3.0 2.0 0.00 0.00 0.00
20210226071312 49 85 2.0 3.0 0.00 0.00 0.00
20210226071237 49 85 2.0 3.0 0.00 0.00 0.00
20210226071035 49 36 0.0 3.0 0.00 0.00 0.00
20210226070541 49 95 3.0 4.0 0.00 0.00 0.00
20210226070430 49 95 3.0 4.0 0.00 0.00 0.00
20210226070230 49 82 3.0 4.0 0.00 0.00 0.00
20210226065619 49 94 1.0 2.0 0.00 0.00 0.00
20210226065106 49 112 2.0 3.0 0.00 0.00 0.00
20210226065041 49 112 2.0 3.0 0.00 0.00 0.00
20210226064816 49 127 2.0 3.0 0.00 0.00 0.00
20210226064408 49 80 2.0 2.0 0.00 0.00 0.00
20210226064248 50 95 3.0 2.0 0.00 0.00 0.00
20210226064207 50 95 3.0 2.0 0.00 0.00 0.00
20210226062941 51 105 3.0 0.0 0.00 0.00 0.00
20210226062838 51 66 0.0 0.0 0.00 0.00 0.00
20210226062150 51 66 0.0 0.0 0.00 0.00 0.00
20210226061947 51 66 0.0 0.0 0.00 0.00 0.00
20210226061342 51 66 0.0 2.0 0.00 0.00 0.00
20210226061139 50 49 5.0 2.0 0.00 0.00 0.00
20210226060938 50 99 2.0 2.0 0.00 0.00 0.00
20210226060811 49 82 1.0 0.0 0.00 0.00 0.00
20210226060744 49 82 1.0 0.0 0.00 0.00 0.00
20210226060137 50 127 0.0 0.0 0.00 0.00 0.00
20210226055935 50 127 0.0 2.0 0.00 0.00 0.00
20210226055804 50 127 0.0 2.0 0.00 0.00 0.00
20210226055728 50 127 0.0 2.0 0.00 0.00 0.00
20210226055526 50 127 0.0 2.0 0.00 0.00 0.00
20210226055353 50 127 0.0 0.0 0.00 0.00 0.00
20210226055338 50 73 0.0 0.0 0.00 0.00 0.00
20210226055328 50 73 0.0 0.0 0.00 0.00 0.00
20210226055216 50 73 0.0 0.0 0.00 0.00 0.00
20210226054947 50 73 0.0 0.0 0.00 0.00 0.00
20210226054718 50 73 0.0 0.0 0.00 0.00 0.00
20210226054527 51 73 0.0 0.0 0.00 0.00 0.00
20210226054348 51 73 0.0 0.0 0.00 0.00 0.00
20210226054315 51 73 0.0 0.0 0.00 0.00 0.00
20210226054111 51 73 0.0 0.0 0.00 0.00 0.00
20210226053949 51 73 0.0 0.0 0.00 0.00 0.00
20210226053910 51 73 0.0 0.0 0.00 0.00 0.00
20210226053708 51 73 0.0 0.0 0.00 0.00 0.00
20210226053540 51 73 0.0 0.0 0.00 0.00 0.00
20210226053516 51 73 0.0 0.0 0.00 0.00 0.00
20210226053335 51 73 0.0 0.0 0.00 0.00 0.00
20210226053305 51 73 0.0 0.0 0.00 0.00 0.00
20210226053150 52 73 0.0 0.0 0.00 0.00 0.00
20210226053104 52 73 0.0 0.0 0.00 0.00 0.00
20210226052828 52 73 0.0 0.0 0.00 0.00 0.00
20210226052646 52 73 0.0 0.0 0.00 0.00 0.00
20210226052543 52 73 0.0 0.0 0.00 0.00 0.00
20210226052128 52 73 0.0 0.0 0.00 0.00 0.00
20210226052054 52 73 0.0 0.0 0.00 0.00 0.00
20210226051924 53 73 0.0 0.0 0.00 0.00 0.00
20210226051854 53 73 0.0 0.0 0.00 0.00 0.00
20210226051323 53 73 0.0 0.0 0.00 0.00 0.00
20210226051246 53 73 0.0 0.0 0.00 0.00 0.00
20210226051134 53 73 0.0 0.0 0.00 0.00 0.00
20210226051044 53 73 0.0 0.0 0.00 0.00 0.00
20210226050929 53 73 0.0 0.0 0.00 0.00 0.00
20210226050842 53 73 0.0 0.0 0.00 0.00 0.00
20210226050716 53 73 0.0 0.0 0.00 0.00 0.00
20210226050639 53 73 0.0 0.0 0.00 0.00 0.00
20210226050441 54 73 0.0 0.0 0.00 0.00 0.00
20210226050117 54 73 0.0 0.0 0.00 0.00 0.00
20210226050035 54 73 0.0 0.0 0.00 0.00 0.00
20210226045931 54 73 0.0 0.0 0.00 0.00 0.00
20210226045832 54 73 0.0 0.0 0.00 0.00 0.00
20210226045429 54 73 0.0 0.0 0.00 0.00 0.00
20210226045315 54 73 0.0 0.0 0.00 0.00 0.00
20210226045244 54 73 0.0 0.0 0.00 0.00 0.00
20210226045135 54 73 0.0 0.0 0.00 0.00 0.00
20210226044924 54 73 0.0 2.0 0.00 0.00 0.00
20210226044843 54 73 0.0 2.0 0.00 0.00 0.00
20210226044621 54 73 0.0 2.0 0.00 0.00 0.00
20210226044422 54 73 0.0 1.0 0.00 0.00 0.00
20210226044219 54 73 0.0 1.0 0.00 0.00 0.00
20210226044048 54 64 0.0 1.0 0.00 0.00 0.00
20210226044026 54 64 0.0 1.0 0.00 0.00 0.00
20210226043813 54 64 0.0 1.0 0.00 0.00 0.00
20210226043656 54 35 1.0 1.0 0.00 0.00 0.00
20210226043611 54 35 1.0 1.0 0.00 0.00 0.00
20210226043019 54 84 0.0 1.0 0.00 0.00 0.00
20210226042829 54 22 0.0 2.0 0.00 0.00 0.00
20210226042746 54 22 0.0 2.0 0.00 0.00 0.00
20210226042543 53 56 0.0 2.0 0.00 0.00 0.00
20210226042422 53 56 0.0 2.0 0.00 0.00 0.00
20210226042236 54 70 1.0 2.0 0.00 0.00 0.00
20210226042158 54 70 1.0 2.0 0.00 0.00 0.00
20210226041438 54 43 0.0 3.0 0.00 0.00 0.00
20210226041352 54 43 0.0 3.0 0.00 0.00 0.00
20210226040628 54 91 2.0 2.0 0.00 0.00 0.00
20210226040544 54 91 2.0 2.0 0.00 0.00 0.00
20210226040140 54 36 0.0 2.0 0.00 0.00 0.00
20210226035938 54 60 1.0 2.0 0.00 0.00 0.00
20210226035736 54 81 2.0 0.0 0.00 0.00 0.00
20210226035332 55 43 0.0 0.0 0.00 0.00 0.00
20210226035131 55 43 0.0 0.0 0.00 0.00 0.00
20210226035030 55 299 0.0 1.0 0.00 0.00 0.00
20210226034929 55 299 0.0 1.0 0.00 0.00 0.00
20210226034728 55 299 0.0 1.0 0.00 0.00 0.00
20210226034323 56 299 0.0 3.0 0.00 0.00 0.00
20210226034203 56 90 0.0 3.0 0.00 0.00 0.00
20210226034123 56 90 0.0 3.0 0.00 0.00 0.00
20210226033315 59 109 3.0 5.0 0.00 0.00 0.00
20210226033114 59 98 3.0 5.0 0.00 0.00 0.00
20210226033001 59 132 2.0 5.0 0.00 0.00 0.00
20210226032955 59 132 2.0 5.0 0.00 0.00 0.00
20210226032306 59 32 4.0 5.0 0.00 0.00 0.00
20210226031659 61 80 4.0 7.0 0.00 0.00 0.00
20210226031457 61 80 3.0 7.0 0.00 0.00 0.00
20210226031255 61 8 4.0 7.0 0.00 0.00 0.00
20210226031053 61 53 5.0 7.0 0.00 0.00 0.00
20210226030855 61 80 6.0 8.0 0.00 0.00 0.00
20210226030654 61 60 5.0 8.0 0.00 0.00 0.00
20210226030045 60 49 5.0 6.0 0.00 0.00 0.00
20210226025842 60 50 3.0 6.0 0.00 0.00 0.00
20210226025438 58 49 5.0 6.0 0.00 0.00 0.00
20210226025407 57 67 6.0 4.0 0.00 0.00 0.00
20210226025338 56 61 3.0 4.0 0.00 0.00 0.00
20210226024957 56 73 2.0 3.0 0.00 0.00 0.00
20210226023219 55 102 2.0 3.0 0.00 0.00 0.00
20210226023025 56 78 1.0 3.0 0.00 0.00 0.00
20210226022858 56 108 2.0 2.0 0.00 0.00 0.00
20210226022251 57 98 0.0 2.0 0.00 0.00 0.00
20210226022208 57 98 0.0 2.0 0.00 0.00 0.00
20210226022021 57 98 0.0 2.0 0.00 0.00 0.00
20210226021440 58 101 1.0 2.0 0.00 0.00 0.00
20210226021400 58 101 1.0 2.0 0.00 0.00 0.00
20210226021202 59 91 2.0 2.0 0.00 0.00 0.00
20210226021036 59 97 2.0 2.0 0.00 0.00 0.00
20210226020957 59 97 2.0 2.0 0.00 0.00 0.00
20210226020755 60 84 0.0 1.0 0.00 0.00 0.00
20210226020626 60 84 0.0 1.0 0.00 0.00 0.00
20210226020556 60 84 0.0 1.0 0.00 0.00 0.00
20210226020357 61 84 0.0 1.0 0.00 0.00 0.00
20210226020150 61 84 0.0 1.0 0.00 0.00 0.00
20210226015747 62 102 0.0 2.0 0.00 0.00 0.00
20210226014537 65 40 0.0 1.0 0.00 0.00 0.00
20210226014131 66 286 1.0 4.0 0.00 0.00 0.00
20210226013729 67 286 0.0 4.0 0.00 0.00 0.00
20210226013532 67 210 1.0 4.0 0.00 0.00 0.00
20210226012627 67 265 3.0 3.0 0.00 0.00 0.00
20210226012336 67 137 2.0 7.0 0.00 0.00 0.00
20210226012112 68 199 1.0 7.0 0.00 0.00 0.00
20210226011708 68 164 3.0 2.0 0.00 0.00 0.00
20210226011103 68 279 1.0 6.0 0.00 0.00 0.00
20210226010706 69 250 0.0 7.0 0.00 0.00 0.00
20210226005851 69 203 1.0 8.0 0.00 0.00 0.00
20210226004438 69 293 1.0 6.0 0.00 0.00 0.00
20210226004237 69 286 4.0 6.0 0.00 0.00 0.00
20210226004036 69 293 4.0 6.0 0.00 0.00 0.00
20210226003835 69 261 0.0 8.0 0.00 0.00 0.00
20210226003631 69 233 5.0 8.0 0.00 0.00 0.00
20210226003227 69 127 5.0 7.0 0.00 0.00 0.00
20210226003032 70 253 0.0 7.0 0.00 0.00 0.00
20210226002904 71 296 0.0 4.0 0.00 0.00 0.00
20210226002448 71 191 0.0 7.0 0.00 0.00 0.00
20210226002218 71 284 0.0 7.0 0.00 0.00 0.00
20210226002031 70 344 0.0 7.0 0.00 0.00 0.00
20210226001614 70 322 2.0 3.0 0.00 0.00 0.00
20210226001208 70 12 0.0 4.0 0.00 0.00 0.00
20210226001023 70 113 0.0 4.0 0.00 0.00 0.00
20210226000805 70 210 2.0 6.0 0.00 0.00 0.00
20210226000614 71 253 3.0 6.0 0.00 0.00 0.00
20210225235958 71 306 5.0 9.0 0.00 0.00 0.00
20210225235755 71 354 3.0 7.0 0.00 0.00 0.00
20210225235351 71 264 3.0 9.0 0.00 0.00 0.00
20210225234948 72 262 0.0 9.0 0.00 0.00 0.00
20210225234745 72 284 0.0 6.0 0.00 0.00 0.00
20210225234144 71 298 0.0 10.0 0.00 0.00 0.00
20210225233736 71 286 5.0 7.0 0.00 0.00 0.00
20210225231539 70 237 4.0 10.0 0.00 0.00 0.00
20210225231316 70 229 8.0 5.0 0.00 0.00 0.00
20210225230305 71 265 2.0 9.0 0.00 0.00 0.00
20210225230113 71 203 1.0 9.0 0.00 0.00 0.00
20210225225659 71 264 5.0 7.0 0.00 0.00 0.00
20210225225459 71 192 2.0 7.0 0.00 0.00 0.00
20210225224448 71 184 1.0 8.0 0.00 0.00 0.00
20210225223640 71 255 7.0 8.0 0.00 0.00 0.00
20210225222247 70 324 3.0 6.0 0.00 0.00 0.00
20210225221825 70 30 0.0 8.0 0.00 0.00 0.00
20210225221027 71 343 4.0 8.0 0.00 0.00 0.00
20210225220437 71 267 0.0 9.0 0.00 0.00 0.00
20210225220234 71 320 5.0 9.0 0.00 0.00 0.00
20210225215402 70 267 1.0 10.0 0.00 0.00 0.00
20210225213544 69 178 4.0 9.0 0.00 0.00 0.00
20210225212352 68 160 4.0 9.0 0.00 0.00 0.00
20210225211325 68 122 1.0 10.0 0.00 0.00 0.00